Time;durP1;ratioP1;P1;durP2;ratioP2;P2;SDS_P1;SDS_P2;PMS_P1;PMS_P2;Temp;Humidity;BMP_temperature;BMP_pressure;BME280_temperature;BME280_humidity;BME280_pressure;Samples;Min_cycle;Max_cycle;Signal;HPM_P1;HPM_P2
2022/09/07 00:01:16;;;;;;;14.55;13.18;;;;;;;;;;5052965;28;20080;-82
2022/09/07 00:03:43;;;;;;;14.23;12.35;;;;;;;;;;5052957;28;20136;-83
2022/09/07 00:06:11;;;;;;;15.45;14.00;;;;;;;;;;5035216;28;20080;-82
2022/09/07 00:08:39;;;;;;;14.40;13.00;;;;;;;;;;5035073;28;20496;-83
2022/09/07 00:11:07;;;;;;;14.38;13.02;;;;;;;;;;5034772;28;20053;-82
2022/09/07 00:13:35;;;;;;;18.17;13.65;;;;;;;;;;5034945;28;20099;-84
2022/09/07 00:16:07;;;;;;;15.38;13.57;;;;;;;;;;5035173;28;20080;-83
2022/09/07 00:18:34;;;;;;;14.50;13.20;;;;;;;;;;5034996;28;20053;-82
2022/09/07 00:21:03;;;;;;;16.25;12.90;;;;;;;;;;5052912;28;20155;-82
2022/09/07 00:23:31;;;;;;;16.15;14.55;;;;;;;;;;5035470;28;20049;-82
2022/09/07 00:25:59;;;;;;;14.25;12.63;;;;;;;;;;5035429;28;20072;-82
2022/09/07 00:28:26;;;;;;;14.23;12.77;;;;;;;;;;5052817;28;20084;-82
2022/09/07 00:30:53;;;;;;;15.20;13.82;;;;;;;;;;5034914;28;20065;-82
2022/09/07 00:33:21;;;;;;;14.63;13.23;;;;;;;;;;5052788;28;20567;-82
2022/09/07 00:35:48;;;;;;;16.67;14.43;;;;;;;;;;5052856;28;20076;-83
2022/09/07 00:38:15;;;;;;;17.25;15.65;;;;;;;;;;5052646;28;20118;-82
2022/09/07 00:40:42;;;;;;;16.90;13.75;;;;;;;;;;5034743;28;20084;-84
2022/09/07 00:43:14;;;;;;;17.63;15.07;;;;;;;;;;5035552;28;20052;-82
2022/09/07 00:45:41;;;;;;;16.40;14.27;;;;;;;;;;5052818;28;20122;-83
2022/09/07 00:48:13;;;;;;;15.85;14.23;;;;;;;;;;5052666;28;20096;-83
2022/09/07 00:50:43;;;;;;;14.75;13.30;;;;;;;;;;5034789;28;20049;-82
2022/09/07 00:53:20;;;;;;;18.27;13.38;;;;;;;;;;5034899;28;20121;-83
2022/09/07 00:55:48;;;;;;;16.88;13.55;;;;;;;;;;5034959;28;20466;-82
2022/09/07 00:58:16;;;;;;;17.63;13.52;;;;;;;;;;5035148;28;20089;-83
2022/09/07 01:00:45;;;;;;;16.58;13.52;;;;;;;;;;5035070;28;20496;-83
2022/09/07 01:03:13;;;;;;;21.60;14.88;;;;;;;;;;5034782;28;20052;-81
2022/09/07 01:05:43;;;;;;;17.55;13.85;;;;;;;;;;5034747;28;20052;-82
2022/09/07 01:08:11;;;;;;;15.00;13.35;;;;;;;;;;5035069;28;20045;-82
2022/09/07 01:10:38;;;;;;;19.17;15.25;;;;;;;;;;5034673;28;20484;-83
2022/09/07 01:13:05;;;;;;;17.40;15.60;;;;;;;;;;5052563;28;20049;-82
2022/09/07 01:15:40;;;;;;;15.38;13.85;;;;;;;;;;5051449;28;20080;-81
2022/09/07 01:18:11;;;;;;;19.55;14.95;;;;;;;;;;5051862;28;20055;-82
2022/09/07 01:20:54;;;;;;;18.48;15.10;;;;;;;;;;5037137;28;20080;-82
2022/09/07 01:23:30;;;;;;;17.08;15.40;;;;;;;;;;5037766;28;20052;-82
2022/09/07 01:26:21;;;;;;;17.13;15.38;;;;;;;;;;5055245;28;20503;-82
2022/09/07 01:28:53;;;;;;;19.05;16.23;;;;;;;;;;5037632;28;20091;-82
2022/09/07 01:31:20;;;;;;;17.77;15.10;;;;;;;;;;5083060;23;20515;-81
2022/09/07 01:34:06;;;;;;;16.38;14.68;;;;;;;;;;5083084;28;20044;-82
2022/09/07 01:36:37;;;;;;;17.60;15.02;;;;;;;;;;5062837;28;20577;-81
2022/09/07 01:39:04;;;;;;;18.70;16.27;;;;;;;;;;5081722;28;20396;-81
2022/09/07 01:41:37;;;;;;;16.50;14.85;;;;;;;;;;5063955;28;20545;-81
2022/09/07 01:44:20;;;;;;;17.52;15.73;;;;;;;;;;5064025;28;20052;-81
2022/09/07 01:46:56;;;;;;;21.23;15.07;;;;;;;;;;5081363;28;20076;-82
2022/09/07 01:49:26;;;;;;;19.60;17.52;;;;;;;;;;5081560;28;20044;-81
2022/09/07 01:51:56;;;;;;;19.70;17.63;;;;;;;;;;5080841;28;20084;-82
2022/09/07 01:54:28;;;;;;;23.25;17.20;;;;;;;;;;5080696;28;20049;-82
2022/09/07 01:57:03;;;;;;;17.25;15.45;;;;;;;;;;5063357;28;20045;-82
2022/09/07 01:59:38;;;;;;;18.92;16.73;;;;;;;;;;5080626;28;20080;-82
2022/09/07 02:02:10;;;;;;;16.67;14.98;;;;;;;;;;5062698;28;20525;-83
2022/09/07 02:04:46;;;;;;;17.67;15.75;;;;;;;;;;5061178;28;20079;-81
2022/09/07 02:07:26;;;;;;;19.50;14.90;;;;;;;;;;5080379;28;20048;-82
2022/09/07 02:09:58;;;;;;;15.02;13.63;;;;;;;;;;5062952;28;20076;-81
2022/09/07 02:12:33;;;;;;;21.27;14.13;;;;;;;;;;5080541;28;20510;-81
2022/09/07 02:15:03;;;;;;;19.55;14.75;;;;;;;;;;5081789;28;20049;-82
2022/09/07 02:17:32;;;;;;;18.67;16.75;;;;;;;;;;5064532;28;20049;-82
2022/09/07 02:20:23;;;;;;;16.55;14.90;;;;;;;;;;5080812;28;20056;-82
2022/09/07 02:22:53;;;;;;;15.93;14.43;;;;;;;;;;5056793;28;20438;-83
2022/09/07 02:25:22;;;;;;;17.88;15.98;;;;;;;;;;5063902;28;20048;-82
2022/09/07 02:27:51;;;;;;;24.00;16.58;;;;;;;;;;5081045;28;20048;-82
2022/09/07 02:30:18;;;;;;;19.05;16.02;;;;;;;;;;5081014;28;20083;-82
2022/09/07 02:32:46;;;;;;;15.77;14.13;;;;;;;;;;5063100;28;20052;-82
2022/09/07 02:35:13;;;;;;;15.65;14.15;;;;;;;;;;5080569;28;20059;-81
2022/09/07 02:37:41;;;;;;;17.60;15.80;;;;;;;;;;5080144;28;20048;-82
2022/09/07 02:40:09;;;;;;;15.50;13.98;;;;;;;;;;5079480;28;20044;-82
2022/09/07 02:42:37;;;;;;;19.13;14.18;;;;;;;;;;5061097;28;20058;-82
2022/09/07 02:45:07;;;;;;;19.13;16.38;;;;;;;;;;5061789;28;20059;-82
2022/09/07 02:47:34;;;;;;;16.13;14.68;;;;;;;;;;5060926;28;20048;-82
2022/09/07 02:50:16;;;;;;;15.35;13.93;;;;;;;;;;5062788;28;20495;-82
2022/09/07 02:52:43;;;;;;;15.90;14.30;;;;;;;;;;5064757;28;20044;-82
2022/09/07 02:55:19;;;;;;;15.63;13.95;;;;;;;;;;5064885;28;20112;-82
2022/09/07 02:57:55;;;;;;;16.17;14.52;;;;;;;;;;5064662;28;20054;-81
2022/09/07 03:00:24;;;;;;;16.00;14.60;;;;;;;;;;5081796;28;20049;-81
2022/09/07 03:02:55;;;;;;;17.05;15.25;;;;;;;;;;5065272;28;20049;-81
2022/09/07 03:05:28;;;;;;;16.25;14.73;;;;;;;;;;5064150;28;20052;-82
2022/09/07 03:08:00;;;;;;;16.30;14.60;;;;;;;;;;5063577;28;20068;-82
2022/09/07 03:10:28;;;;;;;22.83;17.08;;;;;;;;;;5062738;28;20045;-82
2022/09/07 03:12:55;;;;;;;19.30;17.33;;;;;;;;;;5063819;28;20048;-82
2022/09/07 03:15:23;;;;;;;19.65;16.15;;;;;;;;;;5063198;28;20045;-83
2022/09/07 03:17:51;;;;;;;17.70;15.98;;;;;;;;;;5080299;28;20044;-82
2022/09/07 03:20:19;;;;;;;20.02;16.55;;;;;;;;;;5060599;28;20188;-82
2022/09/07 03:22:47;;;;;;;18.10;16.20;;;;;;;;;;5061084;28;20426;-82
2022/09/07 03:25:15;;;;;;;18.02;16.10;;;;;;;;;;5060412;28;20049;-83
2022/09/07 03:27:43;;;;;;;24.40;18.80;;;;;;;;;;5078326;28;20090;-82
2022/09/07 03:30:10;;;;;;;17.17;15.35;;;;;;;;;;5060004;28;20052;-82
2022/09/07 03:32:38;;;;;;;17.20;15.50;;;;;;;;;;5077638;28;20047;-82
2022/09/07 03:35:06;;;;;;;18.02;16.17;;;;;;;;;;5077738;28;20079;-82
2022/09/07 03:37:37;;;;;;;16.13;14.52;;;;;;;;;;5059274;28;20053;-81
2022/09/07 03:40:06;;;;;;;15.65;14.02;;;;;;;;;;5058260;28;20083;-82
2022/09/07 03:42:33;;;;;;;18.00;16.10;;;;;;;;;;5059017;28;20105;-82
2022/09/07 03:45:00;;;;;;;18.08;16.08;;;;;;;;;;5059032;28;20499;-82
2022/09/07 03:47:27;;;;;;;27.15;20.10;;;;;;;;;;5058540;28;20055;-82
2022/09/07 03:49:54;;;;;;;18.00;16.05;;;;;;;;;;5058533;28;20131;-82
2022/09/07 03:52:21;;;;;;;20.48;17.30;;;;;;;;;;5059179;28;20044;-82
2022/09/07 03:54:49;;;;;;;18.60;16.60;;;;;;;;;;5060440;28;20049;-82
2022/09/07 03:57:18;;;;;;;17.58;15.48;;;;;;;;;;5060201;28;20072;-82
2022/09/07 03:59:46;;;;;;;21.95;18.25;;;;;;;;;;5059471;28;20588;-82
2022/09/07 04:02:14;;;;;;;17.38;15.55;;;;;;;;;;5060093;28;20545;-82
2022/09/07 04:04:41;;;;;;;17.15;15.40;;;;;;;;;;5060450;28;20053;-82
2022/09/07 04:07:09;;;;;;;17.83;15.93;;;;;;;;;;5061643;28;20044;-82
2022/09/07 04:09:36;;;;;;;18.48;16.70;;;;;;;;;;5061218;28;20052;-82
2022/09/07 04:12:03;;;;;;;17.33;15.70;;;;;;;;;;5061209;28;20079;-82
2022/09/07 04:14:31;;;;;;;19.40;14.82;;;;;;;;;;5061246;28;20614;-82
2022/09/07 04:16:58;;;;;;;16.85;15.15;;;;;;;;;;5061222;28;20056;-82
2022/09/07 04:19:25;;;;;;;16.85;15.07;;;;;;;;;;5077637;28;20053;-82
2022/09/07 04:21:52;;;;;;;19.20;14.73;;;;;;;;;;5072736;28;20037;-82
2022/09/07 04:24:19;;;;;;;16.98;15.18;;;;;;;;;;5080292;28;20033;-82
2022/09/07 04:26:46;;;;;;;16.63;15.13;;;;;;;;;;5081132;28;20029;-80
2022/09/07 04:29:14;;;;;;;15.00;13.63;;;;;;;;;;5097872;28;20032;-82
2022/09/07 04:31:41;;;;;;;17.40;14.70;;;;;;;;;;5057485;28;20030;-81
2022/09/07 04:34:09;;;;;;;16.00;14.40;;;;;;;;;;5057872;28;20029;-81
2022/09/07 04:36:36;;;;;;;18.27;16.30;;;;;;;;;;5038976;28;20053;-82
2022/09/07 04:39:04;;;;;;;18.38;16.38;;;;;;;;;;5035951;28;20107;-82
2022/09/07 04:41:33;;;;;;;17.38;15.57;;;;;;;;;;5036556;28;20045;-82
2022/09/07 04:44:01;;;;;;;19.48;17.50;;;;;;;;;;5036577;28;20111;-82
2022/09/07 04:46:29;;;;;;;17.40;15.32;;;;;;;;;;5035093;28;20042;-82
2022/09/07 04:48:57;;;;;;;21.05;18.48;;;;;;;;;;5035185;28;20431;-82
2022/09/07 04:51:26;;;;;;;17.55;15.75;;;;;;;;;;5036133;28;20061;-82
2022/09/07 04:53:54;;;;;;;18.63;16.92;;;;;;;;;;5039508;28;20409;-82
2022/09/07 04:56:21;;;;;;;23.05;20.33;;;;;;;;;;5040847;28;20475;-82
2022/09/07 04:58:49;;;;;;;26.50;18.95;;;;;;;;;;5024023;28;20049;-82
2022/09/07 05:01:18;;;;;;;27.77;19.70;;;;;;;;;;5023704;28;20117;-82
2022/09/07 05:03:45;;;;;;;35.45;23.67;;;;;;;;;;5040951;28;20056;-82
2022/09/07 05:06:13;;;;;;;42.85;20.67;;;;;;;;;;5041673;28;20045;-82
2022/09/07 05:08:41;;;;;;;29.88;21.17;;;;;;;;;;5042078;28;20045;-82
2022/09/07 05:11:09;;;;;;;19.95;17.67;;;;;;;;;;5040548;28;20061;-82
2022/09/07 05:13:36;;;;;;;20.80;17.42;;;;;;;;;;5039472;28;20053;-82
2022/09/07 05:16:13;;;;;;;19.27;17.38;;;;;;;;;;5040734;28;20416;-82
2022/09/07 05:18:42;;;;;;;25.30;17.85;;;;;;;;;;5039713;28;20057;-83
2022/09/07 05:21:10;;;;;;;19.00;17.10;;;;;;;;;;5039842;28;20076;-83
2022/09/07 05:23:37;;;;;;;20.88;17.15;;;;;;;;;;5040187;28;20526;-81
2022/09/07 05:26:05;;;;;;;24.02;20.45;;;;;;;;;;5040192;28;20108;-82
2022/09/07 05:28:33;;;;;;;21.77;17.52;;;;;;;;;;5040282;28;20084;-82
2022/09/07 05:31:07;;;;;;;18.30;16.40;;;;;;;;;;5070468;28;20048;-81
2022/09/07 05:33:52;;;;;;;20.02;18.05;;;;;;;;;;5065556;28;20053;-82
2022/09/07 05:36:39;;;;;;;28.60;19.02;;;;;;;;;;5066746;28;20480;-81
2022/09/07 05:39:07;;;;;;;21.30;16.88;;;;;;;;;;5063603;28;20052;-83
2022/09/07 05:41:35;;;;;;;20.20;17.45;;;;;;;;;;5064347;28;20049;-83
2022/09/07 05:44:02;;;;;;;22.45;20.08;;;;;;;;;;5064898;28;20052;-82
2022/09/07 05:46:51;;;;;;;23.67;20.95;;;;;;;;;;5067354;28;20120;-82
2022/09/07 05:49:18;;;;;;;20.70;18.58;;;;;;;;;;5064274;28;20045;-82
2022/09/07 05:51:47;;;;;;;27.25;23.58;;;;;;;;;;5063935;28;20048;-82
2022/09/07 05:54:14;;;;;;;27.02;23.73;;;;;;;;;;5064087;28;20496;-82
2022/09/07 05:56:41;;;;;;;23.20;20.95;;;;;;;;;;5062049;28;20114;-83
2022/09/07 05:59:08;;;;;;;20.75;18.65;;;;;;;;;;5062012;28;20059;-82
2022/09/07 06:01:35;;;;;;;20.30;14.40;;;;;;;;;;5060814;28;20470;-83
2022/09/07 06:04:03;;;;;;;14.95;13.45;;;;;;;;;;5060417;28;20049;-83
2022/09/07 06:06:31;;;;;;;12.82;11.63;;;;;;;;;;5061869;28;20056;-82
2022/09/07 06:08:58;;;;;;;14.82;10.05;;;;;;;;;;5063168;28;20071;-83
2022/09/07 06:11:26;;;;;;;10.23;7.40;;;;;;;;;;5079187;28;20048;-83
2022/09/07 06:13:53;;;;;;;10.48;6.72;;;;;;;;;;5079549;28;20045;-82
2022/09/07 06:16:21;;;;;;;7.00;6.40;;;;;;;;;;5080251;28;20090;-83
2022/09/07 06:18:49;;;;;;;7.05;6.55;;;;;;;;;;5079953;28;20048;-83
2022/09/07 06:21:18;;;;;;;6.72;6.13;;;;;;;;;;5080606;28;20498;-82
2022/09/07 06:23:46;;;;;;;7.10;6.43;;;;;;;;;;5080722;28;20080;-83
2022/09/07 06:26:14;;;;;;;8.02;6.97;;;;;;;;;;5080588;28;20052;-83
2022/09/07 06:28:45;;;;;;;10.70;7.70;;;;;;;;;;5080054;28;20052;-83
2022/09/07 06:31:16;;;;;;;10.45;7.20;;;;;;;;;;5078797;28;20482;-83
2022/09/07 06:33:44;;;;;;;8.23;7.13;;;;;;;;;;5078610;28;20053;-83
2022/09/07 06:36:12;;;;;;;6.53;5.90;;;;;;;;;;5080367;28;20070;-82
2022/09/07 06:38:40;;;;;;;6.18;5.40;;;;;;;;;;5079213;28;20102;-82
2022/09/07 06:41:17;;;;;;;7.90;5.85;;;;;;;;;;5079689;28;20049;-83
2022/09/07 06:44:05;;;;;;;5.80;5.30;;;;;;;;;;5078441;28;20521;-83
2022/09/07 06:46:32;;;;;;;8.68;5.20;;;;;;;;;;5078819;28;20083;-83
2022/09/07 06:49:19;;;;;;;6.07;5.25;;;;;;;;;;5079342;28;20050;-83
2022/09/07 06:51:46;;;;;;;7.45;5.15;;;;;;;;;;5079332;28;20079;-83
2022/09/07 06:54:13;;;;;;;8.35;6.95;;;;;;;;;;5079605;28;20055;-84
2022/09/07 06:57:07;;;;;;;9.05;6.53;;;;;;;;;;5078907;28;20072;-82
2022/09/07 06:59:34;;;;;;;12.27;5.53;;;;;;;;;;5079843;28;20056;-84
2022/09/07 07:02:02;;;;;;;5.97;5.03;;;;;;;;;;5080645;28;20049;-84
2022/09/07 07:04:29;;;;;;;7.15;4.78;;;;;;;;;;5078846;28;20061;-83
2022/09/07 07:06:57;;;;;;;6.25;4.70;;;;;;;;;;5078901;28;20048;-82
2022/09/07 07:09:24;;;;;;;8.90;5.35;;;;;;;;;;5078937;28;20561;-82
2022/09/07 07:11:52;;;;;;;8.27;4.18;;;;;;;;;;5080542;28;20041;-82
2022/09/07 07:14:19;;;;;;;4.97;3.70;;;;;;;;;;5078969;28;20045;-82
2022/09/07 07:16:47;;;;;;;5.18;4.35;;;;;;;;;;5079147;28;20045;-83
2022/09/07 07:19:14;;;;;;;7.97;3.88;;;;;;;;;;5078539;28;20404;-83
2022/09/07 07:21:41;;;;;;;7.03;4.50;;;;;;;;;;5080297;28;20059;-82
2022/09/07 07:24:28;;;;;;;7.55;4.60;;;;;;;;;;5085498;28;20156;-82
2022/09/07 07:26:56;;;;;;;9.32;3.97;;;;;;;;;;5079626;28;20052;-84
2022/09/07 07:29:24;;;;;;;5.22;3.25;;;;;;;;;;5077505;28;20055;-83
2022/09/07 07:31:54;;;;;;;5.85;3.53;;;;;;;;;;5055753;22;20049;-83
2022/09/07 07:34:21;;;;;;;6.82;3.80;;;;;;;;;;4996515;28;20165;-84
2022/09/07 07:36:49;;;;;;;4.63;3.10;;;;;;;;;;5015656;28;20050;-85
2022/09/07 07:39:16;;;;;;;6.72;2.88;;;;;;;;;;5013986;28;20053;-83
2022/09/07 07:42:03;;;;;;;6.43;3.20;;;;;;;;;;5015247;28;20061;-85
2022/09/07 07:44:32;;;;;;;3.72;2.90;;;;;;;;;;5030812;28;20054;-84
2022/09/07 07:46:59;;;;;;;6.93;3.10;;;;;;;;;;5015014;28;20096;-83
2022/09/07 07:49:26;;;;;;;5.35;3.40;;;;;;;;;;5029219;28;20057;-83
2022/09/07 07:51:54;;;;;;;19.23;6.95;;;;;;;;;;5018109;28;20133;-85
2022/09/07 07:54:41;;;;;;;8.57;3.85;;;;;;;;;;5028350;28;20505;-84
2022/09/07 07:57:09;;;;;;;4.32;2.90;;;;;;;;;;5015575;28;20060;-82
2022/09/07 07:59:36;;;;;;;4.03;3.22;;;;;;;;;;5015462;28;20057;-85
2022/09/07 08:02:04;;;;;;;5.05;3.40;;;;;;;;;;5028722;28;20060;-83
2022/09/07 08:04:32;;;;;;;8.50;3.58;;;;;;;;;;5013745;28;20091;-84
2022/09/07 08:07:00;;;;;;;9.82;4.50;;;;;;;;;;5015207;28;20056;-85
2022/09/07 08:09:35;;;;;;;8.23;3.50;;;;;;;;;;5013453;28;20077;-84
2022/09/07 08:12:02;;;;;;;7.07;3.45;;;;;;;;;;5029902;28;20520;-84
2022/09/07 08:14:30;;;;;;;5.97;3.40;;;;;;;;;;5029927;28;20133;-83
2022/09/07 08:16:57;;;;;;;6.88;3.15;;;;;;;;;;5029418;28;20504;-83
2022/09/07 08:19:24;;;;;;;7.55;3.10;;;;;;;;;;5029029;28;20056;-84
2022/09/07 08:21:51;;;;;;;6.80;2.42;;;;;;;;;;5029244;28;20046;-85
2022/09/07 08:24:19;;;;;;;7.55;2.70;;;;;;;;;;5029369;28;20543;-84
2022/09/07 08:26:47;;;;;;;3.35;2.58;;;;;;;;;;5012758;28;20077;-84
2022/09/07 08:29:14;;;;;;;5.07;2.63;;;;;;;;;;5016672;28;20053;-84
2022/09/07 08:31:41;;;;;;;6.20;3.03;;;;;;;;;;5032742;28;20531;-84
2022/09/07 08:34:09;;;;;;;6.93;3.05;;;;;;;;;;5033771;28;20046;-84
2022/09/07 08:36:36;;;;;;;10.35;2.80;;;;;;;;;;5017589;28;20489;-84
2022/09/07 08:39:03;;;;;;;6.55;2.63;;;;;;;;;;5033530;28;20128;-84
2022/09/07 08:41:54;;;;;;;2.90;2.60;;;;;;;;;;5034245;28;20423;-84
2022/09/07 08:44:23;;;;;;;2.75;2.50;;;;;;;;;;5020112;28;20394;-85
2022/09/07 08:46:50;;;;;;;8.15;2.70;;;;;;;;;;5039150;28;20046;-85
2022/09/07 08:49:25;;;;;;;4.30;3.05;;;;;;;;;;5023035;28;20073;-85
2022/09/07 08:52:01;;;;;;;4.20;3.10;;;;;;;;;;5021662;28;20553;-84
2022/09/07 08:54:29;;;;;;;4.05;2.50;;;;;;;;;;5037270;28;20049;-85
2022/09/07 08:57:01;;;;;;;5.95;2.60;;;;;;;;;;5037046;28;20493;-85
2022/09/07 08:59:51;;;;;;;2.80;2.45;;;;;;;;;;5034030;28;20053;-85
2022/09/07 09:02:18;;;;;;;5.10;2.83;;;;;;;;;;5035518;28;20053;-85
2022/09/07 09:05:26;;;;;;;3.42;2.53;;;;;;;;;;5031948;28;20057;-84
2022/09/07 09:07:56;;;;;;;4.05;2.50;;;;;;;;;;4999362;28;20060;-84
2022/09/07 09:10:30;;;;;;;5.03;2.33;;;;;;;;;;5031701;28;20517;-84
2022/09/07 09:13:10;;;;;;;2.67;2.47;;;;;;;;;;5015894;28;20050;-83
2022/09/07 09:15:40;;;;;;;5.25;2.20;;;;;;;;;;5031070;28;20054;-83
2022/09/07 09:18:13;;;;;;;2.95;2.20;;;;;;;;;;5031179;28;20096;-84
2022/09/07 09:20:48;;;;;;;5.07;1.88;;;;;;;;;;5031393;28;20057;-84
2022/09/07 09:23:16;;;;;;;2.00;1.90;;;;;;;;;;5014392;28;20054;-84
2022/09/07 09:25:51;;;;;;;4.90;2.53;;;;;;;;;;5030785;28;20054;-84
2022/09/07 09:28:18;;;;;;;4.50;2.33;;;;;;;;;;5015616;28;20046;-84
2022/09/07 09:30:48;;;;;;;2.95;1.70;;;;;;;;;;5015755;28;20058;-84
2022/09/07 09:33:20;;;;;;;4.22;1.83;;;;;;;;;;5031380;28;20045;-83
2022/09/07 09:35:52;;;;;;;3.30;2.13;;;;;;;;;;5031380;28;20153;-84
2022/09/07 09:38:28;;;;;;;2.85;2.22;;;;;;;;;;5030654;28;20121;-84
2022/09/07 09:40:56;;;;;;;2.88;1.90;;;;;;;;;;5029799;28;20501;-84
2022/09/07 09:43:25;;;;;;;6.90;2.03;;;;;;;;;;5031150;28;20417;-83
2022/09/07 09:45:54;;;;;;;4.15;1.85;;;;;;;;;;5016420;28;20423;-84
2022/09/07 09:48:41;;;;;;;3.22;1.50;;;;;;;;;;5029060;28;20420;-83
2022/09/07 09:51:08;;;;;;;4.55;1.40;;;;;;;;;;5031479;28;20077;-84
2022/09/07 09:53:57;;;;;;;4.05;1.65;;;;;;;;;;5028971;28;20441;-83
2022/09/07 09:56:37;;;;;;;3.55;1.55;;;;;;;;;;5016453;28;20042;-83
2022/09/07 09:59:16;;;;;;;5.10;1.67;;;;;;;;;;5015960;28;20054;-83
2022/09/07 10:02:22;;;;;;;2.72;1.42;;;;;;;;;;5028849;28;20046;-84
2022/09/07 10:05:29;;;;;;;7.45;1.75;;;;;;;;;;5016564;28;20065;-84
2022/09/07 10:07:57;;;;;;;4.95;1.83;;;;;;;;;;5032143;28;20129;-84
2022/09/07 10:10:25;;;;;;;7.82;1.75;;;;;;;;;;5032082;28;20053;-85
2022/09/07 10:12:53;;;;;;;4.43;1.60;;;;;;;;;;5018056;28;20042;-85
2022/09/07 10:15:34;;;;;;;7.30;1.90;;;;;;;;;;5017218;28;20084;-82
2022/09/07 10:18:08;;;;;;;3.08;1.27;;;;;;;;;;5017179;28;20124;-83
2022/09/07 10:20:36;;;;;;;2.58;1.40;;;;;;;;;;5031338;28;20132;-84
2022/09/07 10:23:05;;;;;;;5.88;1.52;;;;;;;;;;5016387;28;20060;-85
2022/09/07 10:25:35;;;;;;;8.65;2.25;;;;;;;;;;5031949;28;20046;-85
2022/09/07 10:28:11;;;;;;;3.65;1.80;;;;;;;;;;5015885;28;20075;-83
2022/09/07 10:30:57;;;;;;;5.28;1.65;;;;;;;;;;5031454;28;20046;-83
2022/09/07 10:33:24;;;;;;;3.15;1.70;;;;;;;;;;5030870;28;20050;-84
2022/09/07 10:35:51;;;;;;;4.13;1.73;;;;;;;;;;5030677;28;20452;-85
2022/09/07 10:38:23;;;;;;;4.65;2.08;;;;;;;;;;5031618;28;20050;-82
2022/09/07 10:40:54;;;;;;;3.58;1.55;;;;;;;;;;5030709;28;20054;-83
2022/09/07 10:43:39;;;;;;;2.92;1.88;;;;;;;;;;5016951;28;20489;-85
2022/09/07 10:46:13;;;;;;;2.42;1.30;;;;;;;;;;5015940;28;20144;-83
2022/09/07 10:49:00;;;;;;;;;;;;;;;;;;5029096;28;20492;-82
2022/09/07 10:51:33;;;;;;;2.47;1.52;;;;;;;;;;5012726;28;19925;-82
2022/09/07 10:54:12;;;;;;;5.68;1.95;;;;;;;;;;5014738;28;20134;-86
2022/09/07 10:57:03;;;;;;;5.65;1.90;;;;;;;;;;5015556;28;20045;-82
2022/09/07 10:59:49;;;;;;;2.13;1.70;;;;;;;;;;5029636;28;20492;-84
2022/09/07 11:02:51;;;;;;;3.63;1.85;;;;;;;;;;5026791;28;20053;-82
2022/09/07 11:05:38;;;;;;;5.80;1.63;;;;;;;;;;5026440;28;20050;-82
2022/09/07 11:08:23;;;;;;;2.00;1.38;;;;;;;;;;5029685;28;20050;-83
2022/09/07 11:10:58;;;;;;;4.78;1.67;;;;;;;;;;5029886;28;20048;-83
2022/09/07 11:13:27;;;;;;;3.00;1.48;;;;;;;;;;5013080;28;20401;-82
2022/09/07 11:15:57;;;;;;;6.47;1.50;;;;;;;;;;5029335;28;20049;-83
2022/09/07 11:18:27;;;;;;;4.72;1.92;;;;;;;;;;5029666;28;20496;-83
2022/09/07 11:20:57;;;;;;;4.57;1.83;;;;;;;;;;5030005;28;20069;-83
2022/09/07 11:23:28;;;;;;;10.07;2.13;;;;;;;;;;5014691;28;20062;-82
2022/09/07 11:25:59;;;;;;;2.85;1.75;;;;;;;;;;5013512;28;20045;-82
2022/09/07 11:28:45;;;;;;;2.88;1.50;;;;;;;;;;5014760;28;20053;-82
2022/09/07 11:31:23;;;;;;;4.38;1.58;;;;;;;;;;5029322;28;20060;-82
2022/09/07 11:33:53;;;;;;;4.90;1.90;;;;;;;;;;5014949;28;20140;-83
2022/09/07 11:36:45;;;;;;;13.50;4.10;;;;;;;;;;5014553;28;20068;-82
2022/09/07 11:39:21;;;;;;;5.03;1.40;;;;;;;;;;5014098;28;20077;-83
2022/09/07 11:41:53;;;;;;;5.32;2.33;;;;;;;;;;5013243;28;20072;-82
2022/09/07 11:44:28;;;;;;;4.18;1.90;;;;;;;;;;5014496;28;20042;-83
2022/09/07 11:46:59;;;;;;;6.50;1.80;;;;;;;;;;5029525;28;20419;-83
2022/09/07 11:49:26;;;;;;;4.15;1.80;;;;;;;;;;5029045;28;20512;-82
2022/09/07 11:51:59;;;;;;;3.38;1.73;;;;;;;;;;5029085;28;20531;-82
2022/09/07 11:54:36;;;;;;;4.18;1.50;;;;;;;;;;5028292;28;20077;-83
2022/09/07 11:57:03;;;;;;;2.00;1.40;;;;;;;;;;5029606;28;20056;-83
2022/09/07 11:59:33;;;;;;;3.47;1.60;;;;;;;;;;5029145;28;20128;-82
2022/09/07 12:02:15;;;;;;;2.58;1.58;;;;;;;;;;5028875;28;20132;-82
2022/09/07 12:04:47;;;;;;;2.67;1.38;;;;;;;;;;5013778;28;20052;-83
2022/09/07 12:07:29;;;;;;;3.08;1.58;;;;;;;;;;5028075;28;20520;-85
2022/09/07 12:10:05;;;;;;;2.78;1.30;;;;;;;;;;5029437;28;20520;-82
2022/09/07 12:12:51;;;;;;;13.02;1.80;;;;;;;;;;5013873;28;20045;-82
2022/09/07 12:15:37;;;;;;;4.25;1.45;;;;;;;;;;5014290;28;20523;-83
2022/09/07 12:18:20;;;;;;;3.88;1.00;;;;;;;;;;5029505;28;20416;-83
2022/09/07 12:20:48;;;;;;;3.40;1.08;;;;;;;;;;5029746;28;20483;-83
2022/09/07 12:23:15;;;;;;;5.72;1.60;;;;;;;;;;5032820;28;20052;-84
2022/09/07 12:25:51;;;;;;;5.07;1.02;;;;;;;;;;5018643;28;20101;-84
2022/09/07 12:28:24;;;;;;;2.88;1.40;;;;;;;;;;5031205;28;20152;-83
2022/09/07 12:30:54;;;;;;;3.90;1.35;;;;;;;;;;5030301;28;20050;-83
2022/09/07 12:33:22;;;;;;;1.85;0.85;;;;;;;;;;5020906;28;20050;-86
2022/09/07 12:35:49;;;;;;;4.57;1.00;;;;;;;;;;5034712;28;20042;-84
2022/09/07 12:38:16;;;;;;;4.03;1.08;;;;;;;;;;5034422;28;20046;-84
2022/09/07 12:40:46;;;;;;;2.38;0.85;;;;;;;;;;5034648;28;20505;-83
2022/09/07 12:43:13;;;;;;;4.10;1.08;;;;;;;;;;5033536;28;20054;-84
2022/09/07 12:45:43;;;;;;;4.53;1.10;;;;;;;;;;5036336;28;20054;-83
2022/09/07 12:48:16;;;;;;;4.72;1.38;;;;;;;;;;5019592;28;20524;-84
2022/09/07 12:51:02;;;;;;;12.20;1.70;;;;;;;;;;5034164;28;20046;-84
2022/09/07 12:53:35;;;;;;;1.63;1.00;;;;;;;;;;5018102;28;20050;-83
2022/09/07 12:56:21;;;;;;;3.38;1.10;;;;;;;;;;5033274;28;20390;-83
2022/09/07 12:58:58;;;;;;;8.93;6.93;;;;;;;;;;5033789;28;20064;-84
2022/09/07 13:01:30;;;;;;;5.50;1.42;;;;;;;;;;5032020;28;20069;-83
2022/09/07 13:04:16;;;;;;;5.20;1.80;;;;;;;;;;5031151;28;20100;-84
2022/09/07 13:06:52;;;;;;;8.27;1.20;;;;;;;;;;5016624;28;20054;-82
2022/09/07 13:09:36;;;;;;;6.07;1.30;;;;;;;;;;5017847;28;20056;-85
2022/09/07 13:12:21;;;;;;;17.63;14.93;;;;;;;;;;5030764;28;20046;-84
2022/09/07 13:15:28;;;;;;;5.10;1.55;;;;;;;;;;5017989;28;20057;-85
2022/09/07 13:17:56;;;;;;;4.82;1.10;;;;;;;;;;5035849;28;20061;-84
2022/09/07 13:20:28;;;;;;;2.97;0.82;;;;;;;;;;5034740;28;20054;-84
2022/09/07 13:22:57;;;;;;;3.67;1.13;;;;;;;;;;5020615;28;20144;-82
2022/09/07 13:25:26;;;;;;;3.67;0.90;;;;;;;;;;5019388;28;20045;-84
2022/09/07 13:27:53;;;;;;;4.57;1.45;;;;;;;;;;5034720;28;20050;-82
2022/09/07 13:30:22;;;;;;;3.30;1.20;;;;;;;;;;5035551;23;20058;-95
2022/09/07 13:32:49;;;;;;;3.50;0.93;;;;;;;;;;5037616;28;20050;-95
2022/09/07 13:35:36;;;;;;;2.58;1.10;;;;;;;;;;5036590;28;20489;-92
2022/09/07 13:38:04;;;;;;;2.70;0.85;;;;;;;;;;5036198;28;20136;-94
2022/09/07 13:40:32;;;;;;;3.90;1.00;;;;;;;;;;5036025;28;20164;-93
2022/09/07 13:43:00;;;;;;;7.78;1.17;;;;;;;;;;5036261;28;20506;-95
2022/09/07 13:45:44;;;;;;;6.45;1.60;;;;;;;;;;5036703;28;20056;-93
2022/09/07 13:48:17;;;;;;;5.80;1.45;;;;;;;;;;5044223;28;20037;-95
2022/09/07 13:50:47;;;;;;;4.57;1.00;;;;;;;;;;5035335;28;20505;-95
2022/09/07 13:53:14;;;;;;;2.42;0.90;;;;;;;;;;5035866;28;20075;-94
2022/09/07 13:55:51;;;;;;;3.50;1.70;;;;;;;;;;5037616;28;20060;-96
2022/09/07 13:58:21;;;;;;;6.85;1.33;;;;;;;;;;5036830;28;20490;-96
2022/09/07 14:00:52;;;;;;;5.80;1.30;;;;;;;;;;5039624;28;20057;-94
2022/09/07 14:03:20;;;;;;;7.95;1.98;;;;;;;;;;5040721;28;20049;-95
2022/09/07 14:05:47;;;;;;;6.13;1.92;;;;;;;;;;5039555;28;20049;-95
2022/09/07 14:08:28;;;;;;;7.03;2.42;;;;;;;;;;5037518;28;20049;-88
2022/09/07 14:10:55;;;;;;;12.45;1.77;;;;;;;;;;5035022;28;20059;-95
2022/09/07 14:13:23;;;;;;;9.43;1.38;;;;;;;;;;5039017;28;20573;-92
2022/09/07 14:15:50;;;;;;;15.73;1.88;;;;;;;;;;5036315;28;20049;-95
2022/09/07 14:18:20;;;;;;;6.32;1.40;;;;;;;;;;5037532;28;20497;-95
2022/09/07 14:20:50;;;;;;;7.13;0.90;;;;;;;;;;5038318;28;20053;-92
2022/09/07 14:23:22;;;;;;;5.05;1.00;;;;;;;;;;5041312;28;20056;-96
2022/09/07 14:26:13;;;;;;;2.13;0.75;;;;;;;;;;5037614;28;20049;-95
2022/09/07 14:28:44;;;;;;;5.00;1.08;;;;;;;;;;5036008;28;20053;-95
2022/09/07 14:31:13;;;;;;;5.50;1.23;;;;;;;;;;5036174;28;20062;-92
2022/09/07 14:33:44;;;;;;;14.50;2.63;;;;;;;;;;5039765;28;20056;-95
2022/09/07 14:36:12;;;;;;;5.32;1.30;;;;;;;;;;5036214;28;20556;-96
2022/09/07 14:39:01;;;;;;;5.47;1.65;;;;;;;;;;5038082;28;20056;-96
2022/09/07 14:41:33;;;;;;;6.00;1.70;;;;;;;;;;5036823;28;20053;-95
2022/09/07 14:44:14;;;;;;;;;;;;;;;;;;5036680;28;20041;-95
2022/09/07 14:46:46;;;;;;;7.03;1.73;;;;;;;;;;5018804;28;20448;-93
2022/09/07 14:49:21;;;;;;;5.57;1.20;;;;;;;;;;5034071;28;20049;-96
2022/09/07 14:51:49;;;;;;;1.80;0.80;;;;;;;;;;5035021;28;20052;-93
2022/09/07 14:54:19;;;;;;;2.08;1.10;;;;;;;;;;5035208;28;20128;-95
2022/09/07 14:57:04;;;;;;;4.45;0.98;;;;;;;;;;5033799;28;20589;-94
2022/09/07 14:59:36;;;;;;;6.78;0.88;;;;;;;;;;5034113;28;20045;-93